Pickton, Texas
Current Conditions -  °F | °C
As of 2:35 AM on Monday 22 Dec 2014 (Local Time) from KSLR Reporting Station
Overcast Overcast  
Wind Chill: 11°   Ceiling: 2100
Heat Index: 11°   Visibility: 10mi
Dew Point:   Wind: 12mph
Humidity: 86%   Direction: 170°S
Pressure: 29.71"   Gusts: NA
Location:  33.03°N, 95.39°W
Report Text: KSLR 220835Z AUTO 17010KT 10SM SCT012 BKN021 OVC026 12/09 A2971 RMK AO2 T01150093
Loading
Personal Weather Stations






























Interactive Weather Map New forecast layout! Learn more

10-Day Weather Forecast

Advertisements
Track Severe Weather on mobile